Time;durP1;ratioP1;P1;durP2;ratioP2;P2;SDS_P1;SDS_P2;PMS_P1;PMS_P2;Temp;Humidity;BMP_temperature;BMP_pressure;BME280_temperature;BME280_humidity;BME280_pressure;Samples;Min_cycle;Max_cycle;Signal;HPM_P1;HPM_P2
2022/10/12 00:13:19;;;;;;;178.70;102.42;;;;;;;11.36;89.26;95280.48;1734770;81;20991;-52
2022/10/12 00:15:46;;;;;;;198.47;111.28;;;;;;;11.37;89.16;95274.52;1734120;82;21133;-52
2022/10/12 00:18:12;;;;;;;199.53;111.45;;;;;;;11.42;89.08;95278.13;1734125;82;20955;-52
2022/10/12 00:20:39;;;;;;;204.75;119.28;;;;;;;11.41;88.53;95280.71;1734005;81;21007;-54
2022/10/12 00:23:06;;;;;;;207.98;117.72;;;;;;;11.39;88.36;95287.23;1734104;81;21120;-54
2022/10/12 00:25:38;;;;;;;215.43;121.05;;;;;;;11.37;88.49;95280.64;1734369;82;21089;-53
2022/10/12 00:28:06;;;;;;;216.08;125.22;;;;;;;11.34;88.51;95281.53;1734276;82;21241;-52
2022/10/12 00:30:34;;;;;;;223.75;126.58;;;;;;;11.38;89.05;95287.70;1734150;81;20983;-51
2022/10/12 00:33:02;;;;;;;209.77;122.45;;;;;;;11.43;88.99;95278.28;1734093;82;20948;-54
2022/10/12 00:35:29;;;;;;;207.47;116.17;;;;;;;11.46;88.87;95282.91;1734136;82;21090;-53
2022/10/12 00:37:56;;;;;;;201.27;116.75;;;;;;;11.54;88.57;95280.09;1734146;81;21495;-53
2022/10/12 00:40:24;;;;;;;214.93;120.37;;;;;;;11.55;88.26;95277.50;1734352;82;21423;-53
2022/10/12 00:42:51;;;;;;;216.90;124.40;;;;;;;11.53;88.12;95277.80;1734239;81;20947;-53
2022/10/12 00:45:17;;;;;;;210.00;123.58;;;;;;;11.53;88.29;95275.80;1734090;82;21058;-52
2022/10/12 00:47:50;;;;;;;216.45;117.00;;;;;;;11.57;88.25;95272.35;1734129;81;21018;-51
2022/10/12 00:50:30;;;;;;;211.40;120.17;;;;;;;11.58;87.81;95278.06;1734390;81;20959;-52
2022/10/12 00:53:10;;;;;;;199.95;117.17;;;;;;;11.57;87.68;95268.22;1734385;81;21179;-53
2022/10/12 00:55:41;;;;;;;206.43;118.85;;;;;;;11.56;87.81;95272.81;1733757;81;21101;-52
2022/10/12 00:58:08;;;;;;;210.95;118.42;;;;;;;11.54;87.91;95272.45;1734229;82;21067;-53
2022/10/12 01:00:35;;;;;;;219.25;121.92;;;;;;;11.54;88.15;95273.20;1734273;81;21011;-52
2022/10/12 01:03:02;;;;;;;193.13;111.25;;;;;;;11.56;88.01;95270.81;1734268;81;21435;-53
2022/10/12 01:05:29;;;;;;;192.20;108.97;;;;;;;11.56;87.66;95274.19;1697791;83;21148;-52
2022/10/12 01:07:55;;;;;;;191.98;107.75;;;;;;;11.52;87.71;95277.02;1723686;83;21041;-51
2022/10/12 01:10:23;;;;;;;215.25;119.15;;;;;;;11.45;87.69;95275.86;1724147;83;21010;-52
2022/10/12 01:12:50;;;;;;;211.55;119.20;;;;;;;11.37;88.06;95278.64;1711621;83;21010;-53
2022/10/12 01:15:17;;;;;;;203.73;117.57;;;;;;;11.31;88.63;95274.90;1689644;84;21069;-53
2022/10/12 01:18:10;;;;;;;210.30;114.25;;;;;;;11.28;88.87;95275.78;1689706;85;21154;-53
2022/10/12 01:20:46;;;;;;;;;;;;;;;11.27;88.85;95272.08;1692194;85;21057;-52
2022/10/12 01:23:56;;;;;;;207.55;115.45;;;;;;;11.25;89.04;95271.75;1689586;84;20145;-53
2022/10/12 01:26:51;;;;;;;205.03;118.42;;;;;;;11.20;89.14;95275.80;1689707;85;21453;-52
2022/10/12 01:29:53;;;;;;;219.07;121.82;;;;;;;11.18;89.56;95266.45;1689701;85;21062;-53
2022/10/12 01:32:51;;;;;;;196.90;110.97;;;;;;;11.20;89.64;95270.30;1689856;84;21168;-53
2022/10/12 01:35:46;;;;;;;203.37;109.07;;;;;;;11.24;89.61;95266.86;1689763;85;20986;-52
2022/10/12 01:38:53;;;;;;;209.65;110.72;;;;;;;11.32;89.62;95274.31;1689684;85;21022;-53
2022/10/12 01:41:31;;;;;;;195.80;109.17;;;;;;;11.37;89.52;95271.76;1689671;84;20967;-52
2022/10/12 01:43:59;;;;;;;176.70;105.10;;;;;;;11.34;89.27;95275.39;1689914;85;21057;-53
2022/10/12 01:46:32;;;;;;;169.90;98.90;;;;;;;11.36;89.43;95270.22;1689612;85;20998;-52
2022/10/12 01:49:00;;;;;;;165.65;94.30;;;;;;;11.37;89.30;95267.63;1690532;85;20935;-52
2022/10/12 01:51:49;;;;;;;167.00;93.85;;;;;;;11.38;89.24;95269.80;1689719;85;21054;-52
2022/10/12 01:54:36;;;;;;;166.75;90.30;;;;;;;11.39;89.44;95272.09;1690063;84;21581;-52
2022/10/12 01:57:23;;;;;;;139.20;82.17;;;;;;;11.44;89.61;95266.05;1689648;85;21423;-52
2022/10/12 02:00:11;;;;;;;160.55;93.35;;;;;;;11.47;89.21;95262.41;1689540;84;21272;-52
2022/10/12 02:02:55;;;;;;;141.57;79.70;;;;;;;11.44;89.03;95270.19;1689739;85;21046;-53
2022/10/12 02:05:39;;;;;;;136.15;79.53;;;;;;;11.44;89.12;95268.81;1703019;82;20971;-53
2022/10/12 02:08:26;;;;;;;131.75;78.22;;;;;;;11.49;89.07;95270.25;1709366;82;20992;-53
2022/10/12 02:11:01;;;;;;;153.25;87.72;;;;;;;11.52;88.95;95275.63;1680755;84;20992;-52
2022/10/12 02:13:31;;;;;;;128.10;75.35;;;;;;;11.55;88.80;95276.13;1715961;81;21288;-52
2022/10/12 02:16:01;;;;;;;131.90;76.47;;;;;;;11.54;88.61;95276.59;1734090;82;20987;-53
2022/10/12 02:18:28;;;;;;;143.02;79.25;;;;;;;11.53;88.65;95274.42;1734357;81;21043;-52
2022/10/12 02:20:55;;;;;;;133.25;77.15;;;;;;;11.52;88.31;95277.02;1734412;82;21075;-53
2022/10/12 02:23:23;;;;;;;149.10;81.02;;;;;;;11.49;88.22;95277.90;1734359;81;21474;-53
2022/10/12 02:25:51;;;;;;;164.20;87.45;;;;;;;11.46;88.30;95280.75;1733893;82;21216;-53
2022/10/12 02:28:21;;;;;;;153.18;88.97;;;;;;;11.43;88.51;95279.66;1734298;81;20987;-53
2022/10/12 02:31:03;;;;;;;167.35;95.35;;;;;;;11.37;88.64;95278.64;1734436;82;21070;-52
2022/10/12 02:33:48;;;;;;;155.67;91.22;;;;;;;11.29;88.98;95280.08;1733997;82;21014;-53
2022/10/12 02:36:35;;;;;;;167.70;95.45;;;;;;;11.26;89.43;95283.72;1732739;82;21064;-52
2022/10/12 02:39:12;;;;;;;165.52;95.55;;;;;;;11.27;89.63;95280.34;1705239;82;21098;-52
2022/10/12 02:41:49;;;;;;;166.70;93.82;;;;;;;11.29;90.00;95288.94;1734305;82;20928;-52
2022/10/12 02:44:20;;;;;;;164.40;93.78;;;;;;;11.30;90.01;95283.59;1734309;81;21490;-52
2022/10/12 02:46:48;;;;;;;151.85;89.05;;;;;;;11.29;90.14;95281.45;1734397;82;26330;-53
2022/10/12 02:49:15;;;;;;;147.57;89.50;;;;;;;11.32;90.49;95280.58;1734417;82;21003;-52
2022/10/12 02:51:43;;;;;;;154.55;85.47;;;;;;;11.41;90.43;95290.36;1734261;82;22143;-52
2022/10/12 02:54:09;;;;;;;144.65;86.08;;;;;;;11.47;90.44;95287.21;1734005;81;21042;-53
2022/10/12 02:56:44;;;;;;;150.40;87.50;;;;;;;11.52;89.97;95286.66;1705447;82;21011;-53
2022/10/12 02:59:13;;;;;;;150.10;85.57;;;;;;;11.50;89.63;95284.95;1734327;81;21086;-52
2022/10/12 03:01:39;;;;;;;140.20;81.00;;;;;;;11.44;89.47;95285.34;1734707;81;20958;-52
2022/10/12 03:04:07;;;;;;;142.25;79.92;;;;;;;11.45;89.80;95285.50;1733557;81;21226;-53
2022/10/12 03:06:34;;;;;;;138.47;80.10;;;;;;;11.51;89.88;95289.25;1703167;84;21042;-52
2022/10/12 03:09:01;;;;;;;138.92;79.17;;;;;;;11.58;89.80;95291.84;1703439;84;21015;-53
2022/10/12 03:11:31;;;;;;;134.25;78.42;;;;;;;11.63;89.58;95288.53;1703316;84;20998;-53
2022/10/12 03:13:58;;;;;;;145.25;82.42;;;;;;;11.62;89.16;95288.36;1701892;83;21515;-53
2022/10/12 03:16:25;;;;;;;124.22;74.53;;;;;;;11.58;88.92;95286.33;1696374;84;21329;-53
2022/10/12 03:18:52;;;;;;;126.38;76.47;;;;;;;11.52;88.98;95283.91;1696201;84;21463;-53
2022/10/12 03:21:19;;;;;;;141.70;76.67;;;;;;;11.42;89.08;95287.77;1678663;84;20984;-54
2022/10/12 03:23:46;;;;;;;125.07;78.87;;;;;;;11.31;89.38;95284.55;1696529;84;21011;-53
2022/10/12 03:26:13;;;;;;;142.05;83.92;;;;;;;11.21;89.88;95280.73;1696264;84;20971;-53
2022/10/12 03:28:40;;;;;;;134.27;81.67;;;;;;;11.17;90.39;95286.95;1678780;84;21455;-52
2022/10/12 03:31:07;;;;;;;139.72;79.90;;;;;;;11.15;90.85;95283.86;1696342;84;21487;-53
2022/10/12 03:33:34;;;;;;;135.52;78.70;;;;;;;11.17;91.24;95286.33;1696293;84;21102;-53
2022/10/12 03:36:01;;;;;;;117.15;71.22;;;;;;;11.22;91.65;95280.30;1696335;84;20960;-53
2022/10/12 03:38:28;;;;;;;120.55;70.15;;;;;;;11.32;91.75;95280.58;1696486;84;21059;-52
2022/10/12 03:40:56;;;;;;;121.35;70.22;;;;;;;11.39;91.48;95281.73;1696376;83;21288;-53
2022/10/12 03:43:24;;;;;;;105.50;60.55;;;;;;;11.39;91.47;95281.73;1696248;84;21058;-53
2022/10/12 03:45:51;;;;;;;108.92;59.90;;;;;;;11.44;91.72;95283.17;1696071;84;21830;-54
2022/10/12 03:48:18;;;;;;;116.35;69.45;;;;;;;11.50;91.45;95280.81;1696217;84;21546;-52
2022/10/12 03:50:49;;;;;;;116.67;68.80;;;;;;;11.53;91.10;95279.93;1678399;84;21534;-53
2022/10/12 03:53:16;;;;;;;116.90;70.97;;;;;;;11.52;91.00;95274.87;1678586;84;21472;-53
2022/10/12 03:55:43;;;;;;;116.33;69.97;;;;;;;11.49;91.04;95287.55;1696318;84;20973;-53
2022/10/12 03:58:10;;;;;;;112.95;72.00;;;;;;;11.51;91.45;95285.12;1696330;84;20959;-53
2022/10/12 04:00:37;;;;;;;110.85;69.25;;;;;;;11.52;91.38;95286.66;1696362;84;21050;-53
2022/10/12 04:03:04;;;;;;;117.65;71.07;;;;;;;11.54;91.29;95282.86;1696226;84;21443;-53
2022/10/12 04:05:31;;;;;;;115.00;70.97;;;;;;;11.61;91.37;95288.79;1696518;82;21143;-53
2022/10/12 04:07:59;;;;;;;125.58;80.25;;;;;;;11.66;91.16;95286.85;1696051;84;21179;-55
2022/10/12 04:10:26;;;;;;;127.20;77.15;;;;;;;11.68;91.14;95283.83;1696287;84;21035;-52
2022/10/12 04:12:53;;;;;;;127.97;75.32;;;;;;;11.75;91.28;95291.11;1696451;84;20971;-52
2022/10/12 04:15:20;;;;;;;125.05;72.50;;;;;;;11.77;90.63;95293.61;1696342;84;21447;-52
2022/10/12 04:17:47;;;;;;;162.32;79.65;;;;;;;11.73;90.42;95295.68;1678272;84;21215;-52
2022/10/12 04:20:14;;;;;;;137.03;79.30;;;;;;;11.71;90.22;95296.73;1695998;84;21055;-52
2022/10/12 04:22:42;;;;;;;148.90;93.67;;;;;;;11.70;90.78;95293.05;1696318;84;21000;-52
2022/10/12 04:25:10;;;;;;;177.97;106.32;;;;;;;11.74;90.89;95296.47;1696213;84;21031;-52
2022/10/12 04:27:37;;;;;;;157.45;98.00;;;;;;;11.71;90.52;95300.86;1696222;84;20996;-53
2022/10/12 04:30:05;;;;;;;110.17;68.50;;;;;;;11.67;90.54;95304.34;1696448;84;21159;-53
2022/10/12 04:32:32;;;;;;;98.70;60.17;;;;;;;11.61;90.35;95306.11;1695957;84;20967;-56
2022/10/12 04:34:59;;;;;;;100.85;63.02;;;;;;;11.51;90.43;95294.76;1678423;84;21519;-56
2022/10/12 04:37:26;;;;;;;103.92;62.17;;;;;;;11.45;90.90;95303.41;1678780;84;21439;-56
2022/10/12 04:39:53;;;;;;;104.67;64.77;;;;;;;11.42;91.28;95296.03;1678683;84;20972;-55
2022/10/12 04:42:21;;;;;;;122.50;68.65;;;;;;;11.36;91.46;95301.89;1696374;84;21242;-55
2022/10/12 04:44:47;;;;;;;99.72;61.10;;;;;;;11.30;91.73;95306.41;1696381;84;21554;-51
2022/10/12 04:47:16;;;;;;;96.42;61.65;;;;;;;11.27;92.00;95307.30;1696023;84;21510;-51
2022/10/12 04:49:43;;;;;;;94.40;59.27;;;;;;;11.27;92.33;95308.67;1696009;84;21053;-52
2022/10/12 04:52:09;;;;;;;103.40;64.20;;;;;;;11.32;92.91;95312.25;1696211;84;21023;-51
2022/10/12 04:54:38;;;;;;;119.65;68.55;;;;;;;11.39;92.96;95304.39;1696299;84;21039;-52
2022/10/12 04:57:04;;;;;;;109.87;69.20;;;;;;;11.38;92.74;95313.87;1678411;84;21046;-51
2022/10/12 04:59:31;;;;;;;114.25;66.65;;;;;;;11.37;93.25;95317.21;1696427;84;21015;-51
2022/10/12 05:01:59;;;;;;;110.20;66.40;;;;;;;11.41;93.15;95312.98;1696357;84;21073;-52
2022/10/12 05:04:26;;;;;;;109.10;66.72;;;;;;;11.42;93.00;95314.53;1707675;81;20943;-50
2022/10/12 05:06:53;;;;;;;114.85;70.42;;;;;;;11.42;92.97;95322.20;1734291;81;21214;-51
2022/10/12 05:09:22;;;;;;;113.12;69.53;;;;;;;11.44;93.32;95321.16;1734420;81;20948;-52
2022/10/12 05:11:48;;;;;;;120.65;70.72;;;;;;;11.50;93.49;95316.64;1734442;81;21050;-52
2022/10/12 05:14:17;;;;;;;108.80;66.40;;;;;;;11.55;93.55;95318.84;1733708;81;21046;-52
2022/10/12 05:16:45;;;;;;;106.15;66.12;;;;;;;11.57;92.89;95324.71;1727073;82;21745;-52
2022/10/12 05:19:11;;;;;;;103.40;65.75;;;;;;;11.55;93.12;95327.11;1708351;83;21751;-52
2022/10/12 05:21:41;;;;;;;110.80;69.87;;;;;;;11.55;93.31;95324.97;1708979;82;21547;-52
2022/10/12 05:24:08;;;;;;;102.60;66.33;;;;;;;11.57;93.57;95326.09;1687578;82;21522;-52
2022/10/12 05:26:34;;;;;;;104.58;63.92;;;;;;;11.57;93.05;95328.09;1707601;82;21011;-53
2022/10/12 05:29:01;;;;;;;92.88;58.90;;;;;;;11.53;92.89;95326.78;1705952;82;21031;-52
2022/10/12 05:31:28;;;;;;;97.05;61.48;;;;;;;11.54;92.91;95324.81;1707153;82;21181;-54
2022/10/12 05:33:55;;;;;;;107.72;65.72;;;;;;;11.49;92.71;95326.12;1706863;82;21060;-53
2022/10/12 05:36:21;;;;;;;98.42;65.95;;;;;;;11.45;92.97;95331.55;1703978;81;21567;-53
2022/10/12 05:38:48;;;;;;;108.05;66.53;;;;;;;11.48;93.68;95332.05;1706534;82;21901;-53
2022/10/12 05:41:16;;;;;;;109.48;68.65;;;;;;;11.50;93.47;95340.68;1686825;82;21000;-52
2022/10/12 05:43:43;;;;;;;102.02;66.65;;;;;;;11.47;93.36;95340.16;1706737;82;22391;-53
2022/10/12 05:46:10;;;;;;;107.83;68.20;;;;;;;11.51;93.74;95334.71;1707770;82;21009;-53
2022/10/12 05:48:37;;;;;;;110.45;71.15;;;;;;;11.57;93.76;95340.48;1709240;82;21018;-54
2022/10/12 05:51:04;;;;;;;118.62;75.17;;;;;;;11.63;93.62;95342.86;1708170;82;20984;-53
2022/10/12 05:53:32;;;;;;;118.67;74.60;;;;;;;11.67;93.76;95336.63;1709004;82;21974;-51
2022/10/12 05:55:59;;;;;;;104.92;67.05;;;;;;;11.74;93.92;95339.95;1706736;82;21800;-51
2022/10/12 05:58:28;;;;;;;110.45;71.10;;;;;;;11.86;94.03;95343.95;1705122;82;21058;-54
2022/10/12 06:00:54;;;;;;;116.22;73.95;;;;;;;11.93;93.12;95345.86;1706132;82;21078;-53
2022/10/12 06:03:21;;;;;;;107.90;69.65;;;;;;;11.94;92.62;95339.13;1709417;82;20984;-51
2022/10/12 06:05:48;;;;;;;116.15;72.87;;;;;;;11.97;93.05;95347.92;1704183;82;21093;-53
2022/10/12 06:08:19;;;;;;;122.60;80.57;;;;;;;12.08;92.65;95345.58;1703179;81;21669;-52
2022/10/12 06:10:50;;;;;;;139.65;90.32;;;;;;;12.13;92.06;95353.33;1706282;82;21577;-53
2022/10/12 06:13:20;;;;;;;142.35;93.10;;;;;;;12.16;91.78;95349.68;1705049;82;21032;-54
2022/10/12 06:15:52;;;;;;;111.17;75.87;;;;;;;12.23;92.06;95353.58;1706523;82;21006;-54
2022/10/12 06:18:24;;;;;;;125.30;80.75;;;;;;;12.30;91.47;95356.10;1682650;82;21595;-56
2022/10/12 06:20:54;;;;;;;114.80;73.57;;;;;;;12.33;91.48;95356.63;1704946;82;21314;-54
2022/10/12 06:23:23;;;;;;;129.63;78.37;;;;;;;12.34;90.84;95358.16;1704480;82;21544;-57
2022/10/12 06:25:50;;;;;;;115.37;77.42;;;;;;;12.34;91.10;95354.02;1686904;82;20999;-53
2022/10/12 06:28:19;;;;;;;120.60;80.42;;;;;;;12.39;90.82;95362.33;1685210;82;21026;-52
2022/10/12 06:30:50;;;;;;;131.50;85.25;;;;;;;12.43;90.58;95363.77;1704058;82;21455;-54
2022/10/12 06:33:17;;;;;;;118.82;80.55;;;;;;;12.46;90.28;95361.49;1704132;82;21225;-54
2022/10/12 06:35:44;;;;;;;109.67;71.35;;;;;;;12.49;90.56;95366.74;1706107;82;21073;-53
2022/10/12 06:38:11;;;;;;;114.03;71.20;;;;;;;12.58;90.42;95374.51;1707090;82;20995;-60
2022/10/12 06:40:39;;;;;;;125.75;77.78;;;;;;;12.67;90.22;95368.47;1706861;82;21899;-53
2022/10/12 06:43:06;;;;;;;113.22;72.55;;;;;;;12.77;89.45;95372.09;1704622;82;21632;-53
2022/10/12 06:45:33;;;;;;;105.40;67.15;;;;;;;12.81;89.17;95365.84;1704651;82;21131;-54
2022/10/12 06:48:00;;;;;;;89.65;58.38;;;;;;;12.85;88.68;95372.00;1707368;82;20998;-56
2022/10/12 06:50:27;;;;;;;87.80;59.90;;;;;;;12.89;88.13;95371.30;1707330;82;21617;-54
2022/10/12 06:52:54;;;;;;;87.35;60.10;;;;;;;12.87;87.32;95369.59;1704567;82;21014;-53
2022/10/12 06:55:21;;;;;;;78.95;52.95;;;;;;;12.83;87.45;95371.09;1705122;82;21059;-56
2022/10/12 06:57:49;;;;;;;71.02;49.23;;;;;;;12.85;87.76;95378.31;1705930;82;21412;-52
2022/10/12 07:00:16;;;;;;;74.15;52.15;;;;;;;12.86;87.52;95383.24;1704861;82;21066;-54
2022/10/12 07:02:43;;;;;;;72.45;44.85;;;;;;;12.84;86.98;95381.51;1706169;82;21010;-54
2022/10/12 07:05:10;;;;;;;76.42;51.13;;;;;;;12.79;86.53;95386.22;1706427;82;21011;-56
2022/10/12 07:07:37;;;;;;;76.12;44.75;;;;;;;12.71;86.67;95393.21;1706558;82;21035;-57
2022/10/12 07:10:07;;;;;;;14.40;11.15;;;;;;;12.68;86.64;95389.34;1685224;82;21002;-54
2022/10/12 07:12:37;;;;;;;8.60;7.08;;;;;;;12.62;85.06;95388.96;1704864;82;21039;-56
2022/10/12 07:15:05;;;;;;;5.40;4.60;;;;;;;12.59;84.48;95387.09;1702164;82;20991;-53
2022/10/12 07:17:34;;;;;;;6.53;5.60;;;;;;;12.60;83.55;95394.16;1685717;83;21011;-51
2022/10/12 07:20:01;;;;;;;9.25;8.33;;;;;;;12.57;82.68;95400.57;1683363;83;22016;-53
2022/10/12 07:22:28;;;;;;;11.28;7.40;;;;;;;12.56;82.62;95401.16;1687926;83;21118;-56
2022/10/12 07:24:55;;;;;;;12.45;8.50;;;;;;;12.57;82.14;95394.42;1685083;83;21080;-54
2022/10/12 07:27:22;;;;;;;6.53;4.55;;;;;;;12.60;82.03;95390.80;1686459;83;20955;-53
2022/10/12 07:29:50;;;;;;;3.12;2.83;;;;;;;12.62;81.92;95390.34;1686651;83;21003;-54
2022/10/12 07:32:17;;;;;;;11.53;5.25;;;;;;;12.63;81.22;95397.41;1686327;83;21091;-54
2022/10/12 07:34:44;;;;;;;25.27;17.12;;;;;;;12.65;80.98;95398.52;1689516;83;21513;-58
2022/10/12 07:37:12;;;;;;;30.45;18.67;;;;;;;12.68;81.33;95395.48;1686246;83;21498;-54
2022/10/12 07:39:40;;;;;;;60.65;35.65;;;;;;;12.71;81.12;95393.97;1669244;84;21130;-55
2022/10/12 07:42:07;;;;;;;65.72;39.98;;;;;;;12.74;82.13;95397.84;1700511;82;21126;-55
2022/10/12 07:44:34;;;;;;;68.62;44.13;;;;;;;12.77;83.01;95399.70;1688425;83;21089;-55
2022/10/12 07:47:02;;;;;;;65.42;40.58;;;;;;;12.83;83.63;95394.56;1699129;82;21184;-56
2022/10/12 07:49:29;;;;;;;62.65;37.33;;;;;;;12.93;83.96;95389.92;1690097;83;21072;-56
2022/10/12 07:51:56;;;;;;;51.40;31.82;;;;;;;13.06;83.87;95389.28;1692675;82;21075;-58
2022/10/12 07:54:23;;;;;;;43.42;26.85;;;;;;;13.19;83.47;95389.98;1687325;83;21077;-54
2022/10/12 07:56:50;;;;;;;38.75;23.45;;;;;;;13.25;82.83;95388.97;1692361;83;21027;-56
2022/10/12 07:59:17;;;;;;;44.23;24.63;;;;;;;13.35;82.32;95387.05;1671756;83;21527;-56
2022/10/12 08:01:46;;;;;;;38.90;23.77;;;;;;;13.36;81.56;95391.36;1705919;83;21091;-54
2022/10/12 08:04:14;;;;;;;37.45;21.85;;;;;;;13.34;81.57;95379.98;1691887;83;20991;-54
2022/10/12 08:06:43;;;;;;;30.15;18.45;;;;;;;13.41;81.46;95381.88;1690120;83;21023;-56
2022/10/12 08:09:13;;;;;;;27.73;18.35;;;;;;;13.48;81.01;95380.23;1683461;83;21058;-54
2022/10/12 08:11:40;;;;;;;34.05;17.85;;;;;;;13.54;80.30;95388.13;1686010;83;21139;-53
2022/10/12 08:14:14;;;;;;;25.45;17.30;;;;;;;13.63;80.19;95386.80;1696693;83;21841;-54
2022/10/12 08:16:43;;;;;;;25.35;17.02;;;;;;;13.70;79.39;95385.17;1689448;82;21161;-55
2022/10/12 08:19:10;;;;;;;32.67;20.85;;;;;;;13.69;79.06;95389.76;1693358;83;21048;-55
2022/10/12 08:21:37;;;;;;;30.82;18.85;;;;;;;13.70;79.07;95383.00;1692696;83;21041;-55
2022/10/12 08:24:06;;;;;;;27.32;14.73;;;;;;;13.76;78.67;95382.56;1696722;83;21614;-55
2022/10/12 08:26:33;;;;;;;20.02;12.43;;;;;;;13.76;78.08;95382.56;1692059;82;21169;-54
2022/10/12 08:29:01;;;;;;;14.98;10.35;;;;;;;13.75;78.02;95387.94;1691064;83;20980;-53
2022/10/12 08:31:29;;;;;;;12.28;8.55;;;;;;;13.75;77.84;95386.55;1673326;83;21016;-54
2022/10/12 08:33:57;;;;;;;14.23;9.20;;;;;;;13.73;77.27;95380.71;1694688;83;21476;-54
2022/10/12 08:36:24;;;;;;;13.00;9.03;;;;;;;13.67;77.24;95383.91;1691489;83;22318;-57
2022/10/12 08:38:53;;;;;;;12.25;8.58;;;;;;;13.64;77.13;95382.80;1676471;83;21084;-54
2022/10/12 08:41:44;;;;;;;17.75;9.13;;;;;;;13.64;76.98;95382.80;1688781;83;21032;-54
2022/10/12 08:44:39;;;;;;;12.75;7.92;;;;;;;13.67;76.67;95390.82;1696297;83;21007;-54
2022/10/12 08:47:30;;;;;;;16.90;11.93;;;;;;;13.63;76.85;95383.27;1696910;83;21135;-58
2022/10/12 08:49:57;;;;;;;16.97;11.03;;;;;;;13.64;76.68;95382.05;1693416;83;21211;-53
2022/10/12 08:52:39;;;;;;;17.25;10.63;;;;;;;13.66;76.70;95378.22;1678198;83;21023;-54
2022/10/12 08:55:25;;;;;;;19.27;12.98;;;;;;;13.66;76.39;95382.37;1698840;83;21075;-58
2022/10/12 08:57:52;;;;;;;14.90;9.28;;;;;;;13.59;76.45;95377.11;1655549;83;21065;-55
2022/10/12 09:00:19;;;;;;;16.23;11.73;;;;;;;13.57;76.81;95380.91;1688500;83;21055;-58
2022/10/12 09:02:56;;;;;;;12.15;9.33;;;;;;;13.59;77.04;95375.73;1701430;83;21016;-55
2022/10/12 09:05:40;;;;;;;15.28;9.33;;;;;;;13.55;77.13;95375.84;1690815;83;22533;-56
2022/10/12 09:08:35;;;;;;;12.45;8.48;;;;;;;13.52;77.09;95383.66;1679067;84;21166;-54
2022/10/12 09:11:16;;;;;;;12.28;8.63;;;;;;;13.52;77.29;95382.87;1695497;83;21109;-57
2022/10/12 09:13:55;;;;;;;14.30;9.28;;;;;;;13.52;77.27;95385.64;1687184;83;21010;-53
2022/10/12 09:16:25;;;;;;;23.83;16.00;;;;;;;13.51;76.77;95388.25;1694087;82;21134;-56
2022/10/12 09:19:01;;;;;;;13.48;8.93;;;;;;;13.48;77.01;95389.16;1692663;82;21066;-56
2022/10/12 09:21:28;;;;;;;20.95;10.75;;;;;;;13.49;76.66;95385.17;1709760;82;21455;-56
2022/10/12 09:23:57;;;;;;;29.63;12.75;;;;;;;13.43;76.83;95395.27;1683840;83;21043;-55
2022/10/12 09:26:36;;;;;;;39.40;18.90;;;;;;;13.40;77.10;95395.55;1725869;81;21582;-57
2022/10/12 09:29:23;;;;;;;23.95;14.60;;;;;;;13.41;77.27;95390.80;1699648;82;22388;-55
2022/10/12 09:32:12;;;;;;;22.60;13.05;;;;;;;13.42;77.11;95390.96;1696296;82;21617;-54
2022/10/12 09:34:39;;;;;;;28.92;17.32;;;;;;;13.38;77.28;95383.38;1699754;82;21084;-54
2022/10/12 09:37:19;;;;;;;17.62;10.75;;;;;;;13.44;77.47;95387.14;1683968;82;21141;-56
2022/10/12 09:39:46;;;;;;;18.10;11.70;;;;;;;13.44;77.07;95390.66;1704140;82;21527;-53
2022/10/12 09:42:13;;;;;;;14.10;8.83;;;;;;;13.41;77.23;95382.52;1714685;82;21224;-54
2022/10/12 09:44:49;;;;;;;20.10;11.97;;;;;;;13.42;77.10;95393.09;1645954;85;21034;-54
2022/10/12 09:47:32;;;;;;;16.30;10.18;;;;;;;13.45;77.26;95391.44;1656504;86;21090;-56
2022/10/12 09:50:04;;;;;;;18.10;10.10;;;;;;;13.50;76.95;95388.88;1705232;82;21027;-52
2022/10/12 09:52:37;;;;;;;;;;;;;;;13.47;76.97;95386.23;1718876;82;22372;-56
2022/10/12 09:55:07;;;;;;;;;;;;;;;13.44;77.20;95383.75;1701293;82;20751;-56
2022/10/12 09:57:39;;;;;;;15.78;9.98;;;;;;;13.44;76.87;95381.61;1701366;82;20550;-53
2022/10/12 10:00:31;;;;;;;17.42;10.93;;;;;;;13.40;77.12;95385.08;1663183;84;20977;-53
2022/10/12 10:02:58;;;;;;;19.05;10.95;;;;;;;13.38;77.09;95380.63;1659542;85;21422;-52
2022/10/12 10:05:28;;;;;;;17.82;11.40;;;;;;;13.34;77.20;95383.53;1673570;84;21580;-57
2022/10/12 10:08:20;;;;;;;20.25;12.33;;;;;;;13.31;77.26;95371.21;1673062;84;21103;-56
2022/10/12 10:10:51;;;;;;;16.52;11.03;;;;;;;13.27;77.72;95371.95;1668834;85;21031;-53
2022/10/12 10:13:20;;;;;;;13.78;10.23;;;;;;;13.27;77.49;95371.95;1709584;81;20995;-55
2022/10/12 10:15:52;;;;;;;16.82;11.25;;;;;;;13.23;77.80;95369.94;1731796;82;21135;-53
2022/10/12 10:18:41;;;;;;;12.45;8.78;;;;;;;13.23;78.03;95375.46;1694514;82;21055;-56
2022/10/12 10:21:13;;;;;;;11.83;8.03;;;;;;;13.26;78.07;95373.94;1684440;84;22216;-54
2022/10/12 10:23:54;;;;;;;10.23;8.05;;;;;;;13.29;77.84;95370.89;1705510;83;21467;-55
2022/10/12 10:26:22;;;;;;;13.48;9.28;;;;;;;13.29;77.94;95374.41;1702740;83;21051;-56
2022/10/12 10:29:16;;;;;;;11.45;8.73;;;;;;;13.23;77.95;95367.93;1688855;83;21078;-55
2022/10/12 10:31:45;;;;;;;14.18;8.90;;;;;;;13.21;78.04;95371.75;1710539;83;21100;-55
2022/10/12 10:34:19;;;;;;;9.58;7.15;;;;;;;13.24;78.04;95364.56;1691928;83;21194;-53
2022/10/12 10:36:50;;;;;;;9.78;7.45;;;;;;;13.24;77.90;95359.05;1687201;83;21059;-52
2022/10/12 10:39:22;;;;;;;15.50;8.08;;;;;;;13.22;78.03;95366.98;1705298;83;21211;-53
2022/10/12 10:41:49;;;;;;;10.72;8.33;;;;;;;13.18;78.22;95360.22;1700524;83;21661;-54
2022/10/12 10:44:29;;;;;;;12.58;9.13;;;;;;;13.14;78.45;95351.89;1698258;83;21381;-55
2022/10/12 10:47:03;;;;;;;11.65;8.43;;;;;;;13.10;78.56;95364.44;1698478;83;21113;-54
2022/10/12 10:49:49;;;;;;;14.10;8.48;;;;;;;13.08;78.83;95357.84;1661196;82;21022;-56
2022/10/12 10:52:27;;;;;;;12.03;8.68;;;;;;;13.11;78.88;95359.07;1716350;82;21110;-55
2022/10/12 10:55:11;;;;;;;10.72;8.33;;;;;;;13.07;78.83;95354.91;1655942;84;21532;-55
2022/10/12 10:57:44;;;;;;;9.60;7.15;;;;;;;12.99;78.89;95350.84;1669065;83;21025;-56
2022/10/12 11:00:15;;;;;;;11.10;7.05;;;;;;;12.91;79.27;95358.56;1698725;83;21302;-53
2022/10/12 11:02:52;;;;;;;19.12;9.20;;;;;;;12.91;79.63;95355.80;1689138;83;21787;-53
2022/10/12 11:05:42;;;;;;;10.45;7.45;;;;;;;12.89;79.85;95346.44;1710633;82;21181;-57
2022/10/12 11:08:20;;;;;;;12.35;8.80;;;;;;;12.92;79.78;95345.55;1677329;84;21074;-56
2022/10/12 11:11:10;;;;;;;18.42;10.68;;;;;;;12.88;79.83;95343.52;1671124;84;21625;-53
2022/10/12 11:13:50;;;;;;;14.73;9.88;;;;;;;12.87;80.08;95346.88;1702923;83;21103;-55
2022/10/12 11:16:52;;;;;;;19.82;10.60;;;;;;;12.91;79.77;95350.91;1702512;83;21902;-53
2022/10/12 11:19:36;;;;;;;12.15;7.55;;;;;;;12.91;79.85;95346.14;1722792;81;21042;-54
2022/10/12 11:22:19;;;;;;;10.65;8.00;;;;;;;12.91;79.82;95336.47;1721574;82;21001;-54
2022/10/12 11:25:00;;;;;;;13.32;8.60;;;;;;;12.90;80.05;95341.84;1655645;82;21093;-54
2022/10/12 11:27:36;;;;;;;9.75;6.97;;;;;;;12.93;80.24;95338.83;1705039;82;21379;-56
2022/10/12 11:30:08;;;;;;;11.00;8.58;;;;;;;12.97;80.01;95344.40;1707387;82;21066;-53
2022/10/12 11:32:38;;;;;;;14.15;8.25;;;;;;;12.97;79.95;95340.26;1705691;82;21022;-54
2022/10/12 11:35:07;;;;;;;12.58;8.75;;;;;;;12.99;79.98;95338.41;1707291;82;21099;-55
2022/10/12 11:37:47;;;;;;;9.68;8.00;;;;;;;12.98;80.09;95341.02;1701769;82;21033;-55
2022/10/12 11:40:29;;;;;;;11.25;8.05;;;;;;;12.96;79.96;95337.93;1709194;82;21623;-55
2022/10/12 11:42:59;;;;;;;17.40;10.28;;;;;;;12.95;80.08;95336.39;1717327;82;21111;-53
2022/10/12 11:45:29;;;;;;;12.75;8.88;;;;;;;12.91;80.17;95335.72;1682215;82;21559;-55
2022/10/12 11:48:07;;;;;;;12.90;8.85;;;;;;;12.92;80.38;95334.50;1722827;82;21467;-55